sensor_id;sensor_type;location;lat;lon;timestamp;temperature;humidity
23801;DHT22;12081;48.614;10.226;2023-07-24T04:03:25;14.10;99.90
23801;DHT22;12081;48.614;10.226;2023-07-24T04:29:59;14.00;99.90
23801;DHT22;12081;48.614;10.226;2023-07-24T05:40:26;17.40;99.90
23801;DHT22;12081;48.614;10.226;2023-07-24T05:43:12;17.10;99.90
23801;DHT22;12081;48.614;10.226;2023-07-24T05:45:57;17.10;99.90
23801;DHT22;12081;48.614;10.226;2023-07-24T05:48:41;17.30;99.90
23801;DHT22;12081;48.614;10.226;2023-07-24T05:51:25;19.10;99.90
23801;DHT22;12081;48.614;10.226;2023-07-24T05:54:09;17.70;99.90
23801;DHT22;12081;48.614;10.226;2023-07-24T05:56:53;18.80;99.90
23801;DHT22;12081;48.614;10.226;2023-07-24T05:59:37;17.80;99.90
23801;DHT22;12081;48.614;10.226;2023-07-24T06:02:21;17.90;99.90
23801;DHT22;12081;48.614;10.226;2023-07-24T06:05:05;18.10;99.90
23801;DHT22;12081;48.614;10.226;2023-07-24T06:07:50;18.30;99.90
23801;DHT22;12081;48.614;10.226;2023-07-24T06:10:34;20.40;99.90
23801;DHT22;12081;48.614;10.226;2023-07-24T06:13:18;18.20;99.90
23801;DHT22;12081;48.614;10.226;2023-07-24T06:16:03;18.10;99.90
23801;DHT22;12081;48.614;10.226;2023-07-24T06:18:47;18.10;99.90
23801;DHT22;12081;48.614;10.226;2023-07-24T06:21:31;20.30;99.90
23801;DHT22;12081;48.614;10.226;2023-07-24T06:24:14;18.30;99.90
23801;DHT22;12081;48.614;10.226;2023-07-24T06:26:59;18.10;99.90
23801;DHT22;12081;48.614;10.226;2023-07-24T06:29:43;18.30;99.90
23801;DHT22;12081;48.614;10.226;2023-07-24T06:32:27;19.60;99.90
23801;DHT22;12081;48.614;10.226;2023-07-24T06:35:12;18.30;99.90
23801;DHT22;12081;48.614;10.226;2023-07-24T06:37:56;18.80;99.90
23801;DHT22;12081;48.614;10.226;2023-07-24T06:40:40;19.90;99.90
23801;DHT22;12081;48.614;10.226;2023-07-24T06:43:24;19.00;99.90
23801;DHT22;12081;48.614;10.226;2023-07-24T06:46:09;19.60;99.90
23801;DHT22;12081;48.614;10.226;2023-07-24T06:48:53;18.10;99.90
23801;DHT22;12081;48.614;10.226;2023-07-24T06:51:37;20.40;99.90
23801;DHT22;12081;48.614;10.226;2023-07-24T06:54:22;18.10;99.90
23801;DHT22;12081;48.614;10.226;2023-07-24T06:57:06;18.50;99.90
23801;DHT22;12081;48.614;10.226;2023-07-24T06:59:51;18.90;99.90
23801;DHT22;12081;48.614;10.226;2023-07-24T07:02:35;20.40;99.90
23801;DHT22;12081;48.614;10.226;2023-07-24T07:05:19;17.80;99.90
23801;DHT22;12081;48.614;10.226;2023-07-24T07:08:03;19.30;99.90
23801;DHT22;12081;48.614;10.226;2023-07-24T07:10:56;17.90;99.90
23801;DHT22;12081;48.614;10.226;2023-07-24T07:13:40;18.20;99.90
23801;DHT22;12081;48.614;10.226;2023-07-24T07:16:24;18.00;99.90
23801;DHT22;12081;48.614;10.226;2023-07-24T07:19:12;18.20;99.90
23801;DHT22;12081;48.614;10.226;2023-07-24T07:21:56;18.20;99.90
23801;DHT22;12081;48.614;10.226;2023-07-24T07:24:40;18.60;99.90
23801;DHT22;12081;48.614;10.226;2023-07-24T07:27:24;18.90;99.90
23801;DHT22;12081;48.614;10.226;2023-07-24T07:30:08;20.10;99.90
23801;DHT22;12081;48.614;10.226;2023-07-24T07:32:52;18.40;99.90
23801;DHT22;12081;48.614;10.226;2023-07-24T07:35:36;18.40;99.90
23801;DHT22;12081;48.614;10.226;2023-07-24T07:38:20;19.00;99.90
23801;DHT22;12081;48.614;10.226;2023-07-24T07:41:06;18.70;99.90
23801;DHT22;12081;48.614;10.226;2023-07-24T07:43:50;20.10;99.90
23801;DHT22;12081;48.614;10.226;2023-07-24T07:46:34;21.20;99.90
23801;DHT22;12081;48.614;10.226;2023-07-24T07:49:18;19.00;99.90
23801;DHT22;12081;48.614;10.226;2023-07-24T07:52:03;21.30;99.90
23801;DHT22;12081;48.614;10.226;2023-07-24T07:54:48;19.10;99.90
23801;DHT22;12081;48.614;10.226;2023-07-24T07:57:36;19.20;99.90
23801;DHT22;12081;48.614;10.226;2023-07-24T08:00:21;20.60;99.90
23801;DHT22;12081;48.614;10.226;2023-07-24T08:03:05;20.80;99.90
23801;DHT22;12081;48.614;10.226;2023-07-24T08:05:49;20.00;99.90
23801;DHT22;12081;48.614;10.226;2023-07-24T08:08:33;20.20;99.90
23801;DHT22;12081;48.614;10.226;2023-07-24T08:11:18;20.60;99.90
23801;DHT22;12081;48.614;10.226;2023-07-24T08:14:02;21.00;99.90
23801;DHT22;12081;48.614;10.226;2023-07-24T08:16:53;21.40;99.90
23801;DHT22;12081;48.614;10.226;2023-07-24T08:19:37;21.60;99.90
23801;DHT22;12081;48.614;10.226;2023-07-24T08:22:21;21.90;99.90
23801;DHT22;12081;48.614;10.226;2023-07-24T08:25:07;22.00;99.90
23801;DHT22;12081;48.614;10.226;2023-07-24T08:27:51;22.00;99.90
23801;DHT22;12081;48.614;10.226;2023-07-24T08:30:35;22.20;99.90
23801;DHT22;12081;48.614;10.226;2023-07-24T08:33:19;22.20;99.90
23801;DHT22;12081;48.614;10.226;2023-07-24T08:36:08;22.60;99.90
23801;DHT22;12081;48.614;10.226;2023-07-24T08:38:52;23.10;99.90
23801;DHT22;12081;48.614;10.226;2023-07-24T08:41:39;23.40;99.90
23801;DHT22;12081;48.614;10.226;2023-07-24T08:44:25;23.80;99.90
23801;DHT22;12081;48.614;10.226;2023-07-24T08:47:13;24.30;99.90
23801;DHT22;12081;48.614;10.226;2023-07-24T08:49:58;24.80;99.90
23801;DHT22;12081;48.614;10.226;2023-07-24T08:52:43;25.40;99.90
23801;DHT22;12081;48.614;10.226;2023-07-24T08:55:28;26.30;99.90
23801;DHT22;12081;48.614;10.226;2023-07-24T08:58:13;26.50;99.90
23801;DHT22;12081;48.614;10.226;2023-07-24T09:00:58;26.40;99.90
23801;DHT22;12081;48.614;10.226;2023-07-24T09:03:42;28.00;99.90
23801;DHT22;12081;48.614;10.226;2023-07-24T09:06:26;26.30;99.90
23801;DHT22;12081;48.614;10.226;2023-07-24T09:09:15;26.40;99.90
23801;DHT22;12081;48.614;10.226;2023-07-24T09:11:59;26.80;99.90
23801;DHT22;12081;48.614;10.226;2023-07-24T09:14:44;27.30;99.80
23801;DHT22;12081;48.614;10.226;2023-07-24T09:17:29;27.80;98.70
23801;DHT22;12081;48.614;10.226;2023-07-24T09:20:13;28.30;96.00
23801;DHT22;12081;48.614;10.226;2023-07-24T09:22:57;28.60;93.00
23801;DHT22;12081;48.614;10.226;2023-07-24T09:25:42;28.90;93.40
23801;DHT22;12081;48.614;10.226;2023-07-24T09:28:27;29.10;91.40
23801;DHT22;12081;48.614;10.226;2023-07-24T09:31:11;28.90;90.90
23801;DHT22;12081;48.614;10.226;2023-07-24T09:33:55;28.70;91.50
23801;DHT22;12081;48.614;10.226;2023-07-24T09:36:39;28.50;91.80
23801;DHT22;12081;48.614;10.226;2023-07-24T09:39:27;28.20;92.40
23801;DHT22;12081;48.614;10.226;2023-07-24T09:42:11;27.70;93.10
23801;DHT22;12081;48.614;10.226;2023-07-24T09:44:55;27.10;95.20
23801;DHT22;12081;48.614;10.226;2023-07-24T09:47:39;26.60;94.30
23801;DHT22;12081;48.614;10.226;2023-07-24T09:50:24;25.90;94.20
23801;DHT22;12081;48.614;10.226;2023-07-24T09:53:18;25.20;96.00
23801;DHT22;12081;48.614;10.226;2023-07-24T09:56:06;24.70;98.10
23801;DHT22;12081;48.614;10.226;2023-07-24T09:58:52;24.30;99.90
23801;DHT22;12081;48.614;10.226;2023-07-24T10:01:39;24.00;99.90
23801;DHT22;12081;48.614;10.226;2023-07-24T10:04:23;23.90;99.90
23801;DHT22;12081;48.614;10.226;2023-07-24T10:07:09;23.70;99.90
23801;DHT22;12081;48.614;10.226;2023-07-24T10:09:53;23.60;99.90
23801;DHT22;12081;48.614;10.226;2023-07-24T10:12:39;23.50;99.90
23801;DHT22;12081;48.614;10.226;2023-07-24T10:15:23;23.30;99.90
23801;DHT22;12081;48.614;10.226;2023-07-24T10:18:09;22.90;99.90
23801;DHT22;12081;48.614;10.226;2023-07-24T10:21:05;22.80;99.90
23801;DHT22;12081;48.614;10.226;2023-07-24T10:23:49;22.30;99.90
23801;DHT22;12081;48.614;10.226;2023-07-24T10:26:34;22.10;99.90
23801;DHT22;12081;48.614;10.226;2023-07-24T10:29:20;21.80;99.90
23801;DHT22;12081;48.614;10.226;2023-07-24T10:32:04;21.60;99.90
23801;DHT22;12081;48.614;10.226;2023-07-24T10:35:06;21.40;99.90
23801;DHT22;12081;48.614;10.226;2023-07-24T10:37:59;21.20;99.90
23801;DHT22;12081;48.614;10.226;2023-07-24T10:40:46;21.00;99.90
23801;DHT22;12081;48.614;10.226;2023-07-24T10:43:48;20.90;99.90
23801;DHT22;12081;48.614;10.226;2023-07-24T10:46:38;20.90;99.90
23801;DHT22;12081;48.614;10.226;2023-07-24T10:49:22;21.00;99.90
23801;DHT22;12081;48.614;10.226;2023-07-24T10:52:07;20.80;99.90
23801;DHT22;12081;48.614;10.226;2023-07-24T10:54:52;20.60;99.90
23801;DHT22;12081;48.614;10.226;2023-07-24T10:57:36;21.80;99.90
23801;DHT22;12081;48.614;10.226;2023-07-24T11:00:20;22.20;99.90
23801;DHT22;12081;48.614;10.226;2023-07-24T11:03:04;20.10;99.90
23801;DHT22;12081;48.614;10.226;2023-07-24T11:05:49;20.00;99.90
23801;DHT22;12081;48.614;10.226;2023-07-24T11:08:33;21.60;99.90
23801;DHT22;12081;48.614;10.226;2023-07-24T11:11:20;21.40;99.90
23801;DHT22;12081;48.614;10.226;2023-07-24T11:14:04;20.00;99.90
23801;DHT22;12081;48.614;10.226;2023-07-24T11:16:49;19.60;99.90
23801;DHT22;12081;48.614;10.226;2023-07-24T11:19:33;19.50;99.90
23801;DHT22;12081;48.614;10.226;2023-07-24T11:22:21;20.30;99.90
23801;DHT22;12081;48.614;10.226;2023-07-24T11:25:06;19.80;99.90
23801;DHT22;12081;48.614;10.226;2023-07-24T11:27:51;19.00;99.90
23801;DHT22;12081;48.614;10.226;2023-07-24T11:30:35;19.50;99.90
23801;DHT22;12081;48.614;10.226;2023-07-24T11:33:20;20.40;99.90
23801;DHT22;12081;48.614;10.226;2023-07-24T11:36:05;18.40;99.90
23801;DHT22;12081;48.614;10.226;2023-07-24T11:38:49;18.30;99.90
23801;DHT22;12081;48.614;10.226;2023-07-24T11:41:34;19.00;99.90
23801;DHT22;12081;48.614;10.226;2023-07-24T11:44:26;17.90;99.90
23801;DHT22;12081;48.614;10.226;2023-07-24T11:47:10;19.60;99.90
23801;DHT22;12081;48.614;10.226;2023-07-24T11:55:01;17.70;99.90
23801;DHT22;12081;48.614;10.226;2023-07-24T11:58:01;17.70;99.90
23801;DHT22;12081;48.614;10.226;2023-07-24T12:00:48;17.70;99.90
23801;DHT22;12081;48.614;10.226;2023-07-24T12:03:33;18.40;99.90
23801;DHT22;12081;48.614;10.226;2023-07-24T12:06:17;18.00;99.90
23801;DHT22;12081;48.614;10.226;2023-07-24T12:09:05;18.30;99.90
23801;DHT22;12081;48.614;10.226;2023-07-24T12:11:49;20.90;99.90
23801;DHT22;12081;48.614;10.226;2023-07-24T12:14:33;19.00;99.90
23801;DHT22;12081;48.614;10.226;2023-07-24T12:17:18;21.40;99.90
23801;DHT22;12081;48.614;10.226;2023-07-24T12:20:03;21.50;99.90
23801;DHT22;12081;48.614;10.226;2023-07-24T12:22:49;20.60;99.90
23801;DHT22;12081;48.614;10.226;2023-07-24T12:25:33;20.90;99.90
23801;DHT22;12081;48.614;10.226;2023-07-24T12:28:18;21.00;99.90
23801;DHT22;12081;48.614;10.226;2023-07-24T12:31:02;20.90;99.90
23801;DHT22;12081;48.614;10.226;2023-07-24T12:33:49;20.90;99.90
23801;DHT22;12081;48.614;10.226;2023-07-24T12:36:33;21.20;99.90
23801;DHT22;12081;48.614;10.226;2023-07-24T12:39:18;21.80;99.90
23801;DHT22;12081;48.614;10.226;2023-07-24T12:42:02;22.40;99.90
23801;DHT22;12081;48.614;10.226;2023-07-24T12:44:47;22.80;99.90
23801;DHT22;12081;48.614;10.226;2023-07-24T12:47:32;23.10;99.90
23801;DHT22;12081;48.614;10.226;2023-07-24T12:50:16;22.60;99.90
23801;DHT22;12081;48.614;10.226;2023-07-24T12:53:01;22.30;99.90
23801;DHT22;12081;48.614;10.226;2023-07-24T12:55:45;21.90;99.90
23801;DHT22;12081;48.614;10.226;2023-07-24T12:58:29;21.50;99.90
23801;DHT22;12081;48.614;10.226;2023-07-24T13:01:13;21.20;99.90
23801;DHT22;12081;48.614;10.226;2023-07-24T13:03:57;21.00;99.90
23801;DHT22;12081;48.614;10.226;2023-07-24T13:06:41;21.00;99.90
23801;DHT22;12081;48.614;10.226;2023-07-24T13:09:26;20.80;99.90
23801;DHT22;12081;48.614;10.226;2023-07-24T13:12:11;21.00;99.90
23801;DHT22;12081;48.614;10.226;2023-07-24T13:14:55;21.10;99.90
23801;DHT22;12081;48.614;10.226;2023-07-24T13:17:39;20.90;99.90
23801;DHT22;12081;48.614;10.226;2023-07-24T13:20:24;21.00;99.90
23801;DHT22;12081;48.614;10.226;2023-07-24T13:23:09;21.60;99.90
23801;DHT22;12081;48.614;10.226;2023-07-24T13:25:53;20.60;99.90
23801;DHT22;12081;48.614;10.226;2023-07-24T13:28:37;21.70;99.90
23801;DHT22;12081;48.614;10.226;2023-07-24T13:31:21;20.70;99.90
23801;DHT22;12081;48.614;10.226;2023-07-24T13:34:08;20.80;99.90
23801;DHT22;12081;48.614;10.226;2023-07-24T13:36:52;21.20;99.90
23801;DHT22;12081;48.614;10.226;2023-07-24T13:39:36;20.60;99.90
23801;DHT22;12081;48.614;10.226;2023-07-24T13:42:21;20.50;99.90
23801;DHT22;12081;48.614;10.226;2023-07-24T13:45:06;19.30;99.90
23801;DHT22;12081;48.614;10.226;2023-07-24T13:47:50;20.60;99.90
23801;DHT22;12081;48.614;10.226;2023-07-24T13:50:35;20.60;99.90
23801;DHT22;12081;48.614;10.226;2023-07-24T13:53:20;20.70;99.90
23801;DHT22;12081;48.614;10.226;2023-07-24T13:56:05;20.90;99.90
23801;DHT22;12081;48.614;10.226;2023-07-24T13:58:50;21.30;99.90
23801;DHT22;12081;48.614;10.226;2023-07-24T14:01:34;22.60;99.90
23801;DHT22;12081;48.614;10.226;2023-07-24T14:04:18;20.50;99.90
23801;DHT22;12081;48.614;10.226;2023-07-24T14:07:02;20.60;99.90
23801;DHT22;12081;48.614;10.226;2023-07-24T14:09:46;20.50;99.90
23801;DHT22;12081;48.614;10.226;2023-07-24T14:12:30;20.40;99.90
23801;DHT22;12081;48.614;10.226;2023-07-24T14:15:14;20.20;99.90
23801;DHT22;12081;48.614;10.226;2023-07-24T14:17:58;20.20;99.90
23801;DHT22;12081;48.614;10.226;2023-07-24T14:20:42;21.50;99.90
23801;DHT22;12081;48.614;10.226;2023-07-24T14:23:27;19.80;99.90
23801;DHT22;12081;48.614;10.226;2023-07-24T14:26:11;19.50;99.90
23801;DHT22;12081;48.614;10.226;2023-07-24T14:28:55;19.30;99.90
23801;DHT22;12081;48.614;10.226;2023-07-24T14:31:39;19.20;99.90
23801;DHT22;12081;48.614;10.226;2023-07-24T14:34:23;18.50;99.90
23801;DHT22;12081;48.614;10.226;2023-07-24T14:37:07;19.40;99.90
23801;DHT22;12081;48.614;10.226;2023-07-24T14:39:52;20.20;99.90
23801;DHT22;12081;48.614;10.226;2023-07-24T14:42:36;18.30;99.90
23801;DHT22;12081;48.614;10.226;2023-07-24T14:45:20;18.50;99.90
23801;DHT22;12081;48.614;10.226;2023-07-24T14:48:06;18.50;99.90
23801;DHT22;12081;48.614;10.226;2023-07-24T14:50:55;18.90;99.90
23801;DHT22;12081;48.614;10.226;2023-07-24T14:53:39;18.60;99.90
23801;DHT22;12081;48.614;10.226;2023-07-24T14:56:23;18.60;99.90
23801;DHT22;12081;48.614;10.226;2023-07-24T14:59:10;18.70;99.90
23801;DHT22;12081;48.614;10.226;2023-07-24T15:01:55;18.60;99.90
23801;DHT22;12081;48.614;10.226;2023-07-24T15:04:39;20.80;99.90
23801;DHT22;12081;48.614;10.226;2023-07-24T15:07:23;19.00;99.90
23801;DHT22;12081;48.614;10.226;2023-07-24T15:10:07;19.20;99.90
23801;DHT22;12081;48.614;10.226;2023-07-24T15:12:51;17.90;99.90
23801;DHT22;12081;48.614;10.226;2023-07-24T15:15:36;19.10;99.90
23801;DHT22;12081;48.614;10.226;2023-07-24T15:18:19;17.80;99.90
23801;DHT22;12081;48.614;10.226;2023-07-24T15:21:03;18.30;99.90
23801;DHT22;12081;48.614;10.226;2023-07-24T15:23:48;17.60;99.90
23801;DHT22;12081;48.614;10.226;2023-07-24T15:26:42;18.90;99.90
23801;DHT22;12081;48.614;10.226;2023-07-24T15:29:26;19.00;99.90
23801;DHT22;12081;48.614;10.226;2023-07-24T15:32:10;19.50;99.90
23801;DHT22;12081;48.614;10.226;2023-07-24T15:34:56;18.40;99.90
23801;DHT22;12081;48.614;10.226;2023-07-24T15:37:40;17.80;99.90
23801;DHT22;12081;48.614;10.226;2023-07-24T15:40:24;19.10;99.90
23801;DHT22;12081;48.614;10.226;2023-07-24T15:43:08;18.30;99.90
23801;DHT22;12081;48.614;10.226;2023-07-24T15:45:55;20.40;99.90
23801;DHT22;12081;48.614;10.226;2023-07-24T15:48:42;17.80;99.90
23801;DHT22;12081;48.614;10.226;2023-07-24T15:51:26;19.90;99.90
23801;DHT22;12081;48.614;10.226;2023-07-24T15:54:11;18.80;99.90
23801;DHT22;12081;48.614;10.226;2023-07-24T15:56:55;18.30;99.90
23801;DHT22;12081;48.614;10.226;2023-07-24T15:59:39;19.10;99.90
23801;DHT22;12081;48.614;10.226;2023-07-24T16:02:23;19.60;99.90
23801;DHT22;12081;48.614;10.226;2023-07-24T16:05:20;18.20;99.90
23801;DHT22;12081;48.614;10.226;2023-07-24T16:08:04;18.40;99.90
23801;DHT22;12081;48.614;10.226;2023-07-24T16:10:48;18.80;99.90
23801;DHT22;12081;48.614;10.226;2023-07-24T16:13:33;19.70;99.90
23801;DHT22;12081;48.614;10.226;2023-07-24T16:16:18;18.60;99.90
23801;DHT22;12081;48.614;10.226;2023-07-24T16:19:19;19.70;99.90
23801;DHT22;12081;48.614;10.226;2023-07-24T16:22:04;19.00;99.90
23801;DHT22;12081;48.614;10.226;2023-07-24T16:24:48;19.10;99.90
23801;DHT22;12081;48.614;10.226;2023-07-24T16:27:32;19.30;99.90
23801;DHT22;12081;48.614;10.226;2023-07-24T16:30:16;22.00;99.90
23801;DHT22;12081;48.614;10.226;2023-07-24T16:33:01;19.50;99.90
23801;DHT22;12081;48.614;10.226;2023-07-24T16:35:45;19.40;99.90
23801;DHT22;12081;48.614;10.226;2023-07-24T16:38:29;19.30;99.90
23801;DHT22;12081;48.614;10.226;2023-07-24T16:41:13;19.30;99.90
23801;DHT22;12081;48.614;10.226;2023-07-24T16:43:58;19.50;99.90
23801;DHT22;12081;48.614;10.226;2023-07-24T16:46:42;19.90;99.90
23801;DHT22;12081;48.614;10.226;2023-07-24T16:49:26;19.20;99.90
23801;DHT22;12081;48.614;10.226;2023-07-24T16:52:10;19.30;99.90
23801;DHT22;12081;48.614;10.226;2023-07-24T16:54:54;19.00;99.90
23801;DHT22;12081;48.614;10.226;2023-07-24T16:57:38;19.10;99.90
23801;DHT22;12081;48.614;10.226;2023-07-24T17:00:22;20.40;99.90
23801;DHT22;12081;48.614;10.226;2023-07-24T17:03:06;19.20;99.90
23801;DHT22;12081;48.614;10.226;2023-07-24T17:05:50;19.40;99.90
23801;DHT22;12081;48.614;10.226;2023-07-24T17:08:34;19.30;99.90
23801;DHT22;12081;48.614;10.226;2023-07-24T17:11:18;20.40;99.90
23801;DHT22;12081;48.614;10.226;2023-07-24T17:14:02;20.00;99.90
23801;DHT22;12081;48.614;10.226;2023-07-24T17:16:46;21.00;99.90
23801;DHT22;12081;48.614;10.226;2023-07-24T17:19:30;19.30;99.90
23801;DHT22;12081;48.614;10.226;2023-07-24T17:22:20;21.40;99.90
23801;DHT22;12081;48.614;10.226;2023-07-24T17:25:05;19.50;99.90
23801;DHT22;12081;48.614;10.226;2023-07-24T17:27:49;19.30;99.90
23801;DHT22;12081;48.614;10.226;2023-07-24T17:30:34;21.70;99.90
23801;DHT22;12081;48.614;10.226;2023-07-24T17:33:18;21.90;99.90
23801;DHT22;12081;48.614;10.226;2023-07-24T17:36:02;19.80;99.90
23801;DHT22;12081;48.614;10.226;2023-07-24T17:38:46;19.40;99.90
23801;DHT22;12081;48.614;10.226;2023-07-24T17:41:30;19.40;99.90
23801;DHT22;12081;48.614;10.226;2023-07-24T17:44:16;19.50;99.90
23801;DHT22;12081;48.614;10.226;2023-07-24T17:46:55;19.60;99.90
23801;DHT22;12081;48.614;10.226;2023-07-24T17:49:39;19.70;99.90
23801;DHT22;12081;48.614;10.226;2023-07-24T17:52:23;19.80;99.90
23801;DHT22;12081;48.614;10.226;2023-07-24T17:55:08;21.20;99.90
23801;DHT22;12081;48.614;10.226;2023-07-24T17:57:52;19.30;99.90
23801;DHT22;12081;48.614;10.226;2023-07-24T18:00:37;20.50;99.90
23801;DHT22;12081;48.614;10.226;2023-07-24T18:03:24;20.40;99.90
23801;DHT22;12081;48.614;10.226;2023-07-24T18:06:08;19.60;99.90
23801;DHT22;12081;48.614;10.226;2023-07-24T18:08:52;20.60;99.90
23801;DHT22;12081;48.614;10.226;2023-07-24T18:11:36;20.20;99.90
23801;DHT22;12081;48.614;10.226;2023-07-24T18:14:20;19.20;99.90
23801;DHT22;12081;48.614;10.226;2023-07-24T18:17:06;19.30;99.90
23801;DHT22;12081;48.614;10.226;2023-07-24T18:19:50;19.00;99.90
23801;DHT22;12081;48.614;10.226;2023-07-24T18:22:36;18.90;99.90
23801;DHT22;12081;48.614;10.226;2023-07-24T18:25:20;19.70;99.90
23801;DHT22;12081;48.614;10.226;2023-07-24T18:28:04;18.60;99.90
23801;DHT22;12081;48.614;10.226;2023-07-24T18:30:49;18.60;99.90
23801;DHT22;12081;48.614;10.226;2023-07-24T18:33:33;20.80;99.90
23801;DHT22;12081;48.614;10.226;2023-07-24T18:36:18;18.90;99.90
23801;DHT22;12081;48.614;10.226;2023-07-24T18:39:02;18.70;99.90
23801;DHT22;12081;48.614;10.226;2023-07-24T18:41:46;19.10;99.90
23801;DHT22;12081;48.614;10.226;2023-07-24T18:44:30;19.60;99.90
23801;DHT22;12081;48.614;10.226;2023-07-24T18:47:15;18.00;99.90
23801;DHT22;12081;48.614;10.226;2023-07-24T18:49:58;19.70;99.90
23801;DHT22;12081;48.614;10.226;2023-07-24T18:52:44;18.20;99.90
23801;DHT22;12081;48.614;10.226;2023-07-24T18:55:28;20.70;99.90
23801;DHT22;12081;48.614;10.226;2023-07-24T18:58:12;19.20;99.90
23801;DHT22;12081;48.614;10.226;2023-07-24T19:00:56;17.80;99.90
23801;DHT22;12081;48.614;10.226;2023-07-24T19:03:40;19.50;99.90
23801;DHT22;12081;48.614;10.226;2023-07-24T19:06:27;18.20;99.90
23801;DHT22;12081;48.614;10.226;2023-07-24T19:09:11;17.80;99.90
23801;DHT22;12081;48.614;10.226;2023-07-24T19:11:55;17.90;99.90
23801;DHT22;12081;48.614;10.226;2023-07-24T19:14:39;17.80;99.90
23801;DHT22;12081;48.614;10.226;2023-07-24T19:17:24;17.60;99.90
23801;DHT22;12081;48.614;10.226;2023-07-24T19:20:09;17.50;99.90
23801;DHT22;12081;48.614;10.226;2023-07-24T19:22:54;17.40;99.90
23801;DHT22;12081;48.614;10.226;2023-07-24T19:25:38;17.70;99.90
23801;DHT22;12081;48.614;10.226;2023-07-24T19:28:22;17.80;99.90
23801;DHT22;12081;48.614;10.226;2023-07-24T19:31:06;17.20;99.90
23801;DHT22;12081;48.614;10.226;2023-07-24T19:33:50;17.10;99.90
23801;DHT22;12081;48.614;10.226;2023-07-24T19:36:34;17.00;99.90
23801;DHT22;12081;48.614;10.226;2023-07-24T19:39:18;16.90;99.90
23801;DHT22;12081;48.614;10.226;2023-07-24T19:42:03;19.00;99.90
23801;DHT22;12081;48.614;10.226;2023-07-24T19:44:47;16.70;99.90
23801;DHT22;12081;48.614;10.226;2023-07-24T19:47:32;18.30;99.90
23801;DHT22;12081;48.614;10.226;2023-07-24T19:50:16;17.00;99.90
23801;DHT22;12081;48.614;10.226;2023-07-24T19:53:00;16.60;99.90
23801;DHT22;12081;48.614;10.226;2023-07-24T19:55:46;16.80;99.90
23801;DHT22;12081;48.614;10.226;2023-07-24T19:58:32;17.40;99.90
23801;DHT22;12081;48.614;10.226;2023-07-24T20:01:19;18.10;99.90
23801;DHT22;12081;48.614;10.226;2023-07-24T20:04:03;18.10;99.90
23801;DHT22;12081;48.614;10.226;2023-07-24T20:06:48;16.50;99.90
23801;DHT22;12081;48.614;10.226;2023-07-24T20:09:33;17.40;99.90
23801;DHT22;12081;48.614;10.226;2023-07-24T20:12:17;16.40;99.90
23801;DHT22;12081;48.614;10.226;2023-07-24T20:15:01;15.90;99.90
23801;DHT22;12081;48.614;10.226;2023-07-24T20:17:47;16.20;99.90
23801;DHT22;12081;48.614;10.226;2023-07-24T20:20:31;16.80;99.90
23801;DHT22;12081;48.614;10.226;2023-07-24T20:23:17;16.10;99.90
23801;DHT22;12081;48.614;10.226;2023-07-24T20:26:02;16.00;99.90
23801;DHT22;12081;48.614;10.226;2023-07-24T20:28:47;16.10;99.90
23801;DHT22;12081;48.614;10.226;2023-07-24T20:31:31;17.30;99.90
23801;DHT22;12081;48.614;10.226;2023-07-24T20:34:15;15.90;99.90
23801;DHT22;12081;48.614;10.226;2023-07-24T20:36:59;15.70;99.90
23801;DHT22;12081;48.614;10.226;2023-07-24T20:39:43;16.00;99.90
23801;DHT22;12081;48.614;10.226;2023-07-24T20:42:29;17.20;99.90
23801;DHT22;12081;48.614;10.226;2023-07-24T20:45:13;17.50;99.90
23801;DHT22;12081;48.614;10.226;2023-07-24T20:47:57;17.90;99.90
23801;DHT22;12081;48.614;10.226;2023-07-24T20:50:42;15.60;99.90
23801;DHT22;12081;48.614;10.226;2023-07-24T20:53:28;16.50;99.90
23801;DHT22;12081;48.614;10.226;2023-07-24T20:56:15;15.10;99.90
23801;DHT22;12081;48.614;10.226;2023-07-24T20:59:01;15.00;99.90
23801;DHT22;12081;48.614;10.226;2023-07-24T21:01:46;16.30;99.90
23801;DHT22;12081;48.614;10.226;2023-07-24T21:04:30;17.50;99.90
23801;DHT22;12081;48.614;10.226;2023-07-24T21:07:14;15.60;99.90
23801;DHT22;12081;48.614;10.226;2023-07-24T21:09:58;15.90;99.90
23801;DHT22;12081;48.614;10.226;2023-07-24T21:12:42;16.10;99.90
23801;DHT22;12081;48.614;10.226;2023-07-24T21:15:27;15.40;99.90
23801;DHT22;12081;48.614;10.226;2023-07-24T21:18:11;15.40;99.90
23801;DHT22;12081;48.614;10.226;2023-07-24T21:20:55;18.20;99.90
23801;DHT22;12081;48.614;10.226;2023-07-24T21:23:39;15.40;99.90
23801;DHT22;12081;48.614;10.226;2023-07-24T21:26:23;15.20;99.90
23801;DHT22;12081;48.614;10.226;2023-07-24T21:29:07;14.90;99.90
23801;DHT22;12081;48.614;10.226;2023-07-24T21:31:51;14.80;99.90
23801;DHT22;12081;48.614;10.226;2023-07-24T21:34:37;15.40;99.90
23801;DHT22;12081;48.614;10.226;2023-07-24T21:37:22;16.40;99.90
23801;DHT22;12081;48.614;10.226;2023-07-24T21:40:07;16.10;99.90
23801;DHT22;12081;48.614;10.226;2023-07-24T21:42:52;14.80;99.90
23801;DHT22;12081;48.614;10.226;2023-07-24T22:39:43;14.30;99.90
23801;DHT22;12081;48.614;10.226;2023-07-24T22:46:10;14.10;99.90
23801;DHT22;12081;48.614;10.226;2023-07-24T22:48:54;14.10;99.90
23801;DHT22;12081;48.614;10.226;2023-07-24T23:17:48;14.10;99.90
